Pagrindinis puslapis
METAR-TAF:

METAR-TAF

Oro uostai :

Kwethluk, Aliaska, Jungtinės Amerikos Valstijos

platuma: 60-47-25N, ilguma: 161-26-37W, Aukštis: 9 m

Dabartinis oras

Ataskaita buvo paskelbta 1 valandą ir 23 minutes, ne 01:56 UTC
Vėjas 10 kt iš Šiaurės Rytų
Temperatūra -7°C
Drėgmė 73%
Slėgis 1002 hPa
Matomumas: 16.1 km
Su prošvaistėmis ne aukštis 11000 ft

METAR: PFKW 170156Z AUTO 04010KT 10SM BKN110 M07/M11 A2958 RMK AO2 SLP017 T10721106 FZRANO

Laikas: 18:19 (03:19 UTC)


TAF: trūkstamas

Orai ataskaitas ir orų prognozės (METAR, TAF).

turimą stotys yra geltonos ir raudonos taškus žemėlapyje.

Perkelti pele per norėdami pamatyti stoties vardą.

Tada spustelėkite, norėdami matyti oro stebėjimo ir prognozės.

Norėdami pakeisti žemėlapį: spustelėkite ant žalios mygtukų su juodo kryžiaus žemyn,; žalią mygtuką su brūkšneliu, jei norite nutolinti; arba žalių rodyklių gretimoms žemėlapius.


METAR-TAF: